Time;durP1;ratioP1;P1;durP2;ratioP2;P2;SDS_P1;SDS_P2;PMS_P1;PMS_P2;Temp;Humidity;BMP_temperature;BMP_pressure;BME280_temperature;BME280_humidity;BME280_pressure;Samples;Min_cycle;Max_cycle;Signal;HPM_P1;HPM_P2
2022/07/09 00:01:32;;;;;;;5.83;4.70;;;;;;;;;;5030360;28;20501;-74
2022/07/09 00:03:59;;;;;;;4.87;4.47;;;;;;;;;;5032190;28;20549;-75
2022/07/09 00:06:28;;;;;;;6.97;4.20;;;;;;;;;;5030159;28;20442;-74
2022/07/09 00:08:55;;;;;;;5.03;4.10;;;;;;;;;;5035990;28;20856;-74
2022/07/09 00:11:22;;;;;;;4.03;3.20;;;;;;;;;;5050389;28;20495;-73
2022/07/09 00:13:49;;;;;;;6.17;4.07;;;;;;;;;;5050333;28;20442;-74
2022/07/09 00:16:16;;;;;;;5.80;4.20;;;;;;;;;;5050167;28;20445;-75
2022/07/09 00:18:43;;;;;;;5.53;3.97;;;;;;;;;;5050094;28;20864;-74
2022/07/09 00:21:10;;;;;;;6.30;4.10;;;;;;;;;;5050012;28;20836;-73
2022/07/09 00:23:39;;;;;;;4.43;4.00;;;;;;;;;;5049928;28;20461;-74
2022/07/09 00:26:06;;;;;;;4.33;3.90;;;;;;;;;;5050240;28;20526;-74
2022/07/09 00:28:33;;;;;;;4.20;3.57;;;;;;;;;;5050317;28;20495;-73
2022/07/09 00:31:00;;;;;;;6.50;4.00;;;;;;;;;;5050071;28;20441;-75
2022/07/09 00:33:27;;;;;;;6.20;4.07;;;;;;;;;;5049476;28;20473;-73
2022/07/09 00:35:54;;;;;;;4.90;3.53;;;;;;;;;;5049881;28;20441;-74
2022/07/09 00:38:21;;;;;;;3.90;3.57;;;;;;;;;;5050345;28;20504;-74
2022/07/09 00:40:50;;;;;;;4.83;3.50;;;;;;;;;;5049807;28;20520;-74
2022/07/09 00:43:18;;;;;;;5.27;3.80;;;;;;;;;;5049691;28;20465;-75
2022/07/09 00:45:45;;;;;;;4.93;3.57;;;;;;;;;;5049742;28;20440;-74
2022/07/09 00:48:12;;;;;;;4.60;3.90;;;;;;;;;;5049631;28;20444;-74
2022/07/09 00:50:40;;;;;;;5.00;4.07;;;;;;;;;;5049968;28;20445;-74
2022/07/09 00:53:08;;;;;;;4.83;3.60;;;;;;;;;;5051083;28;20461;-75
2022/07/09 00:55:35;;;;;;;7.47;4.17;;;;;;;;;;5053627;28;20553;-74
2022/07/09 00:58:04;;;;;;;6.43;3.97;;;;;;;;;;5053696;28;20441;-73
2022/07/09 01:00:31;;;;;;;3.93;3.50;;;;;;;;;;5053994;28;20463;-75
2022/07/09 01:02:58;;;;;;;5.53;3.87;;;;;;;;;;5053384;28;20493;-74
2022/07/09 01:05:25;;;;;;;4.10;3.77;;;;;;;;;;5053464;28;20491;-73
2022/07/09 01:07:52;;;;;;;4.13;3.73;;;;;;;;;;5053804;28;20445;-74
2022/07/09 01:10:19;;;;;;;6.83;4.57;;;;;;;;;;5036032;28;20793;-74
2022/07/09 01:12:47;;;;;;;4.93;4.53;;;;;;;;;;5033250;28;20522;-74
2022/07/09 01:15:15;;;;;;;5.57;4.30;;;;;;;;;;5033295;28;20534;-75
2022/07/09 01:17:42;;;;;;;5.43;4.17;;;;;;;;;;5033449;28;20496;-74
2022/07/09 01:20:10;;;;;;;7.10;4.83;;;;;;;;;;5033252;28;20556;-74
2022/07/09 01:22:40;;;;;;;5.70;3.97;;;;;;;;;;5033040;28;21127;-74
2022/07/09 01:25:09;;;;;;;6.63;4.30;;;;;;;;;;5033741;28;20969;-74
2022/07/09 01:27:36;;;;;;;7.13;4.80;;;;;;;;;;5033611;28;20449;-75
2022/07/09 01:30:03;;;;;;;5.17;4.40;;;;;;;;;;5033811;28;20864;-74
2022/07/09 01:32:30;;;;;;;6.43;4.00;;;;;;;;;;5033402;28;20512;-75
2022/07/09 01:34:57;;;;;;;5.70;4.80;;;;;;;;;;5033451;28;20447;-73
2022/07/09 01:37:24;;;;;;;4.50;4.20;;;;;;;;;;5033534;28;20442;-74
2022/07/09 01:39:52;;;;;;;4.90;4.53;;;;;;;;;;5033877;28;20442;-74
2022/07/09 01:42:20;;;;;;;5.23;4.30;;;;;;;;;;5033230;28;20486;-74
2022/07/09 01:44:49;;;;;;;5.77;4.50;;;;;;;;;;5032974;28;20473;-75
2022/07/09 01:47:16;;;;;;;5.10;4.60;;;;;;;;;;5033310;28;20450;-74
2022/07/09 01:49:43;;;;;;;5.53;4.97;;;;;;;;;;5033075;28;20446;-74
2022/07/09 01:52:10;;;;;;;5.90;5.00;;;;;;;;;;5033031;28;20822;-74
2022/07/09 01:54:37;;;;;;;6.83;5.00;;;;;;;;;;5032719;28;20804;-75
2022/07/09 01:57:06;;;;;;;6.87;4.83;;;;;;;;;;5032667;28;20454;-74
2022/07/09 01:59:33;;;;;;;7.23;5.40;;;;;;;;;;5032676;28;20443;-74
2022/07/09 02:02:01;;;;;;;6.17;5.57;;;;;;;;;;5032685;28;20536;-75
2022/07/09 02:04:28;;;;;;;8.63;4.90;;;;;;;;;;5031509;28;20462;-75
2022/07/09 02:06:56;;;;;;;5.80;5.30;;;;;;;;;;5033124;28;20528;-76
2022/07/09 02:09:23;;;;;;;8.40;6.07;;;;;;;;;;5042077;28;20450;-74
2022/07/09 02:11:50;;;;;;;5.83;5.23;;;;;;;;;;5052694;28;20462;-73
2022/07/09 02:14:18;;;;;;;5.90;5.30;;;;;;;;;;5052387;28;20632;-75
2022/07/09 02:16:45;;;;;;;9.53;5.27;;;;;;;;;;5052426;28;20495;-74
2022/07/09 02:19:12;;;;;;;6.87;5.00;;;;;;;;;;5052290;28;20445;-74
2022/07/09 02:21:39;;;;;;;6.90;5.30;;;;;;;;;;5052149;28;20996;-77
2022/07/09 02:24:07;;;;;;;14.07;6.43;;;;;;;;;;5051811;28;20447;-75
2022/07/09 02:26:34;;;;;;;5.47;4.97;;;;;;;;;;5052443;28;20449;-74
2022/07/09 02:29:01;;;;;;;7.43;5.30;;;;;;;;;;5052261;28;20434;-74
2022/07/09 02:31:30;;;;;;;5.93;5.33;;;;;;;;;;5052097;28;20472;-75
2022/07/09 02:33:57;;;;;;;5.80;5.30;;;;;;;;;;5053372;28;20445;-75
2022/07/09 02:36:24;;;;;;;4.73;4.33;;;;;;;;;;5052855;28;20452;-74
2022/07/09 02:38:51;;;;;;;9.10;5.10;;;;;;;;;;5052650;28;20979;-75
2022/07/09 02:41:18;;;;;;;6.70;5.43;;;;;;;;;;5051905;28;20446;-75
2022/07/09 02:43:45;;;;;;;5.53;5.00;;;;;;;;;;5052519;28;20511;-75
2022/07/09 02:46:12;;;;;;;5.80;5.30;;;;;;;;;;5052574;28;20452;-75
2022/07/09 02:48:41;;;;;;;8.23;4.60;;;;;;;;;;5051868;28;20500;-75
2022/07/09 02:51:08;;;;;;;5.10;4.20;;;;;;;;;;5051624;28;20445;-74
2022/07/09 02:53:35;;;;;;;6.13;5.23;;;;;;;;;;5051371;28;20507;-75
2022/07/09 02:56:02;;;;;;;6.73;5.00;;;;;;;;;;5051708;28;20446;-75
2022/07/09 02:58:29;;;;;;;5.13;4.63;;;;;;;;;;5051537;28;20511;-74
2022/07/09 03:00:56;;;;;;;5.50;5.00;;;;;;;;;;5051753;28;20441;-74
2022/07/09 03:03:24;;;;;;;5.73;4.77;;;;;;;;;;5051015;28;20493;-74
2022/07/09 03:05:52;;;;;;;6.87;6.27;;;;;;;;;;5051393;28;20541;-74
2022/07/09 03:08:21;;;;;;;4.83;4.43;;;;;;;;;;5050423;28;20472;-76
2022/07/09 03:10:48;;;;;;;5.33;4.37;;;;;;;;;;5031573;28;20446;-74
2022/07/09 03:13:15;;;;;;;8.87;4.70;;;;;;;;;;5031322;28;20545;-74
2022/07/09 03:15:42;;;;;;;6.53;5.90;;;;;;;;;;5031354;28;20830;-74
2022/07/09 03:18:09;;;;;;;4.83;4.43;;;;;;;;;;5031249;28;20455;-74
2022/07/09 03:20:36;;;;;;;8.23;5.53;;;;;;;;;;5031634;28;20545;-74
2022/07/09 03:23:05;;;;;;;5.80;5.27;;;;;;;;;;5030685;28;20486;-74
2022/07/09 03:25:32;;;;;;;6.83;5.47;;;;;;;;;;5030840;28;20863;-75
2022/07/09 03:27:59;;;;;;;6.80;4.87;;;;;;;;;;5031497;28;20442;-75
2022/07/09 03:30:27;;;;;;;9.40;5.37;;;;;;;;;;5030944;28;20964;-76
2022/07/09 03:32:54;;;;;;;5.53;5.03;;;;;;;;;;5030499;28;21060;-74
2022/07/09 03:35:21;;;;;;;6.23;5.73;;;;;;;;;;5031088;28;20446;-75
2022/07/09 03:37:48;;;;;;;6.00;5.27;;;;;;;;;;5030708;28;20930;-75
2022/07/09 03:40:16;;;;;;;6.97;5.27;;;;;;;;;;5030861;28;20439;-75
2022/07/09 03:42:43;;;;;;;5.93;5.43;;;;;;;;;;5030578;28;20497;-74
2022/07/09 03:45:10;;;;;;;8.37;5.47;;;;;;;;;;5030698;28;20439;-74
2022/07/09 03:47:37;;;;;;;6.17;5.57;;;;;;;;;;5030759;28;20454;-75
2022/07/09 03:50:05;;;;;;;5.50;4.97;;;;;;;;;;5031014;28;20497;-74
2022/07/09 03:52:32;;;;;;;7.93;5.37;;;;;;;;;;5030424;28;20884;-74
2022/07/09 03:55:00;;;;;;;8.70;5.47;;;;;;;;;;5030622;28;20542;-75
2022/07/09 03:57:28;;;;;;;7.33;5.53;;;;;;;;;;5030906;28;20442;-75
2022/07/09 03:59:55;;;;;;;7.00;5.67;;;;;;;;;;5030279;28;20493;-74
2022/07/09 04:02:22;;;;;;;5.80;5.30;;;;;;;;;;5030281;28;20516;-74
2022/07/09 04:04:50;;;;;;;5.93;5.50;;;;;;;;;;5030289;28;20442;-73
2022/07/09 04:07:17;;;;;;;6.33;5.73;;;;;;;;;;5030306;28;21013;-75
2022/07/09 04:09:44;;;;;;;5.83;5.27;;;;;;;;;;5042905;28;20503;-74
2022/07/09 04:12:11;;;;;;;8.50;5.90;;;;;;;;;;5050601;28;20518;-74
2022/07/09 04:14:39;;;;;;;6.83;5.30;;;;;;;;;;5050169;28;20499;-73
2022/07/09 04:17:07;;;;;;;7.20;5.27;;;;;;;;;;5050513;28;20450;-74
2022/07/09 04:19:34;;;;;;;5.90;5.40;;;;;;;;;;5050169;28;20464;-74
2022/07/09 04:22:02;;;;;;;7.70;6.07;;;;;;;;;;5049811;28;20492;-75
2022/07/09 04:24:29;;;;;;;6.03;5.20;;;;;;;;;;5049717;28;20449;-75
2022/07/09 04:26:56;;;;;;;8.93;5.20;;;;;;;;;;5049895;28;20507;-75
2022/07/09 04:29:23;;;;;;;5.63;5.13;;;;;;;;;;5050178;28;20543;-74
2022/07/09 04:31:51;;;;;;;5.97;5.40;;;;;;;;;;5050080;28;20469;-76
2022/07/09 04:34:18;;;;;;;6.10;5.60;;;;;;;;;;5049917;28;20445;-74
2022/07/09 04:36:46;;;;;;;8.90;5.70;;;;;;;;;;5049841;28;20445;-76
2022/07/09 04:39:13;;;;;;;7.10;5.70;;;;;;;;;;5049732;28;20833;-75
2022/07/09 04:41:40;;;;;;;7.30;5.77;;;;;;;;;;5049529;28;20531;-74
2022/07/09 04:44:08;;;;;;;6.70;5.13;;;;;;;;;;5049658;28;20477;-75
2022/07/09 04:46:35;;;;;;;5.87;5.33;;;;;;;;;;5049946;28;20456;-74
2022/07/09 04:49:03;;;;;;;6.40;5.90;;;;;;;;;;5049725;28;20864;-74
2022/07/09 04:51:30;;;;;;;6.03;5.63;;;;;;;;;;5049789;28;20447;-75
2022/07/09 04:53:57;;;;;;;5.93;5.43;;;;;;;;;;5049652;28;20442;-75
2022/07/09 04:56:24;;;;;;;7.83;6.83;;;;;;;;;;5050044;28;20468;-74
2022/07/09 04:58:54;;;;;;;7.30;5.90;;;;;;;;;;5049651;28;21003;-74
2022/07/09 05:01:21;;;;;;;7.57;6.33;;;;;;;;;;5049935;28;20426;-74
2022/07/09 05:03:49;;;;;;;7.70;5.80;;;;;;;;;;5049414;28;20483;-74
2022/07/09 05:06:17;;;;;;;8.00;6.10;;;;;;;;;;5049521;28;20772;-74
2022/07/09 05:08:45;;;;;;;6.70;6.00;;;;;;;;;;5045025;28;20492;-75
2022/07/09 05:11:12;;;;;;;6.17;5.57;;;;;;;;;;5030169;28;20481;-75
2022/07/09 05:13:40;;;;;;;6.33;5.73;;;;;;;;;;5029692;28;20427;-76
2022/07/09 05:16:07;;;;;;;7.40;5.70;;;;;;;;;;5029855;28;20838;-74
2022/07/09 05:18:34;;;;;;;5.60;5.10;;;;;;;;;;5030002;28;20495;-75
2022/07/09 05:21:02;;;;;;;7.07;6.00;;;;;;;;;;5043598;28;20453;-74
2022/07/09 05:23:30;;;;;;;6.20;5.60;;;;;;;;;;5057411;28;20567;-75
2022/07/09 05:25:57;;;;;;;6.50;5.90;;;;;;;;;;5051679;28;20446;-74
2022/07/09 05:28:24;;;;;;;6.00;5.50;;;;;;;;;;5044095;28;20446;-74
2022/07/09 05:30:51;;;;;;;6.53;5.13;;;;;;;;;;5050364;28;20445;-75
2022/07/09 05:33:19;;;;;;;6.37;5.57;;;;;;;;;;5049875;28;20465;-75
2022/07/09 05:35:46;;;;;;;8.03;6.03;;;;;;;;;;5050704;28;20456;-74
2022/07/09 05:38:13;;;;;;;6.40;5.20;;;;;;;;;;5051836;28;20854;-74
2022/07/09 05:40:41;;;;;;;8.17;6.00;;;;;;;;;;5052924;28;20461;-74
2022/07/09 05:43:08;;;;;;;5.77;5.23;;;;;;;;;;5057105;28;20912;-75
2022/07/09 05:45:35;;;;;;;6.70;5.97;;;;;;;;;;5050020;28;20472;-74
2022/07/09 05:48:02;;;;;;;5.73;5.33;;;;;;;;;;5057808;28;20468;-74
2022/07/09 05:50:29;;;;;;;5.57;5.17;;;;;;;;;;5053799;28;20450;-74
2022/07/09 05:52:56;;;;;;;6.90;6.17;;;;;;;;;;5052843;28;20515;-74
2022/07/09 05:55:23;;;;;;;5.93;5.50;;;;;;;;;;5052619;28;20441;-75
2022/07/09 05:57:52;;;;;;;6.07;5.30;;;;;;;;;;5045127;28;20988;-75
2022/07/09 06:00:19;;;;;;;6.40;5.40;;;;;;;;;;5052746;28;20540;-74
2022/07/09 06:02:46;;;;;;;9.03;5.80;;;;;;;;;;5052099;28;20558;-75
2022/07/09 06:05:13;;;;;;;5.90;5.27;;;;;;;;;;5053057;28;20499;-74
2022/07/09 06:07:44;;;;;;;6.03;5.23;;;;;;;;;;5053159;28;20503;-74
2022/07/09 06:10:12;;;;;;;5.60;4.80;;;;;;;;;;5053344;28;20450;-74
2022/07/09 06:12:39;;;;;;;4.97;4.57;;;;;;;;;;5052417;28;20550;-75
2022/07/09 06:15:09;;;;;;;5.80;5.30;;;;;;;;;;5053235;28;20449;-74
2022/07/09 06:17:36;;;;;;;6.43;4.40;;;;;;;;;;5052290;28;21115;-73
2022/07/09 06:20:03;;;;;;;5.70;4.80;;;;;;;;;;5052191;28;20503;-74
2022/07/09 06:22:30;;;;;;;6.33;4.90;;;;;;;;;;5052091;28;20457;-74
2022/07/09 06:24:57;;;;;;;8.10;4.80;;;;;;;;;;5052580;28;20441;-75
2022/07/09 06:27:25;;;;;;;7.30;5.20;;;;;;;;;;5052260;28;20479;-75
2022/07/09 06:29:52;;;;;;;11.00;5.20;;;;;;;;;;5051718;28;20555;-74
2022/07/09 06:32:20;;;;;;;9.60;6.77;;;;;;;;;;5043659;28;20564;-73
2022/07/09 06:34:47;;;;;;;7.43;5.43;;;;;;;;;;5049994;28;20507;-74
2022/07/09 06:37:14;;;;;;;6.37;5.20;;;;;;;;;;5044481;28;20447;-73
2022/07/09 06:39:48;;;;;;;4.83;4.40;;;;;;;;;;5034490;28;20500;-74
2022/07/09 06:42:17;;;;;;;5.80;4.60;;;;;;;;;;5031693;28;20953;-74
2022/07/09 06:44:44;;;;;;;6.00;5.40;;;;;;;;;;5031882;28;20504;-74
2022/07/09 06:47:12;;;;;;;4.70;4.30;;;;;;;;;;5031782;28;20446;-75
2022/07/09 06:49:40;;;;;;;5.30;4.80;;;;;;;;;;5031918;28;20510;-75
2022/07/09 06:52:08;;;;;;;5.93;4.30;;;;;;;;;;5031225;28;20884;-73
2022/07/09 06:54:35;;;;;;;4.90;4.40;;;;;;;;;;5031266;28;20529;-74
2022/07/09 06:57:03;;;;;;;5.07;4.70;;;;;;;;;;5031971;28;20542;-74
2022/07/09 06:59:30;;;;;;;5.87;4.67;;;;;;;;;;5032980;28;20446;-75
2022/07/09 07:01:57;;;;;;;6.00;4.70;;;;;;;;;;5031834;28;20540;-74
2022/07/09 07:04:25;;;;;;;4.80;4.23;;;;;;;;;;5031701;28;20481;-75
2022/07/09 07:06:53;;;;;;;7.50;4.60;;;;;;;;;;5039700;28;21036;-74
2022/07/09 07:09:21;;;;;;;5.10;4.30;;;;;;;;;;5046065;28;20442;-75
2022/07/09 07:11:49;;;;;;;11.83;5.13;;;;;;;;;;5051315;28;21015;-75
2022/07/09 07:14:16;;;;;;;4.70;4.00;;;;;;;;;;5051288;28;20445;-75
2022/07/09 07:16:43;;;;;;;5.87;4.53;;;;;;;;;;5051388;28;20541;-74
2022/07/09 07:19:11;;;;;;;7.93;4.73;;;;;;;;;;5051653;28;20446;-76
2022/07/09 07:21:38;;;;;;;4.47;3.90;;;;;;;;;;5050975;28;20566;-75
2022/07/09 07:24:06;;;;;;;6.70;4.57;;;;;;;;;;5050725;28;20531;-76
2022/07/09 07:26:33;;;;;;;4.83;4.17;;;;;;;;;;5051228;28;20501;-76
2022/07/09 07:29:00;;;;;;;8.50;4.30;;;;;;;;;;5051204;28;20997;-75
2022/07/09 07:31:27;;;;;;;4.60;4.20;;;;;;;;;;5050885;28;20869;-76
2022/07/09 07:33:55;;;;;;;5.73;4.40;;;;;;;;;;5051221;28;20442;-76
2022/07/09 07:36:22;;;;;;;6.20;4.53;;;;;;;;;;5051272;28;20865;-75
2022/07/09 07:38:49;;;;;;;6.33;4.10;;;;;;;;;;5051209;28;20452;-75
2022/07/09 07:41:18;;;;;;;6.03;4.20;;;;;;;;;;5050662;28;20448;-74
2022/07/09 07:43:45;;;;;;;5.80;4.03;;;;;;;;;;5044686;28;20569;-76
2022/07/09 07:46:12;;;;;;;5.57;4.90;;;;;;;;;;5043447;28;20496;-74
2022/07/09 07:48:41;;;;;;;6.23;4.17;;;;;;;;;;5040353;28;20496;-75
2022/07/09 07:51:08;;;;;;;4.30;3.90;;;;;;;;;;5049352;28;20841;-74
2022/07/09 07:53:35;;;;;;;4.83;4.23;;;;;;;;;;5048132;28;20458;-74
2022/07/09 07:56:02;;;;;;;5.40;4.40;;;;;;;;;;5031298;28;20449;-75
2022/07/09 07:58:30;;;;;;;4.00;3.13;;;;;;;;;;5036702;28;20540;-76
2022/07/09 08:00:57;;;;;;;6.23;4.00;;;;;;;;;;5046695;28;20448;-74
2022/07/09 08:03:24;;;;;;;5.90;4.33;;;;;;;;;;5045702;28;20481;-75
2022/07/09 08:05:51;;;;;;;4.37;3.97;;;;;;;;;;5046298;28;20442;-76
2022/07/09 08:08:19;;;;;;;5.70;3.77;;;;;;;;;;5031119;28;20458;-75
2022/07/09 08:10:48;;;;;;;5.17;3.60;;;;;;;;;;5051157;28;20980;-74
2022/07/09 08:13:15;;;;;;;6.00;3.70;;;;;;;;;;5050262;28;20465;-75
2022/07/09 08:15:44;;;;;;;3.70;3.40;;;;;;;;;;5049969;28;20457;-75
2022/07/09 08:18:12;;;;;;;4.87;3.37;;;;;;;;;;5050247;28;20450;-75
2022/07/09 08:20:39;;;;;;;5.63;4.30;;;;;;;;;;5051065;28;20563;-75
2022/07/09 08:23:06;;;;;;;3.50;2.93;;;;;;;;;;5050068;28;20474;-74
2022/07/09 08:25:33;;;;;;;5.37;3.33;;;;;;;;;;5050014;28;20503;-74
2022/07/09 08:28:00;;;;;;;3.20;2.60;;;;;;;;;;5051650;28;20867;-75
2022/07/09 08:30:27;;;;;;;3.10;2.90;;;;;;;;;;5053696;28;20461;-73
2022/07/09 08:32:56;;;;;;;3.30;2.97;;;;;;;;;;5051387;28;20547;-75
2022/07/09 08:35:25;;;;;;;6.10;3.20;;;;;;;;;;5047055;28;20496;-73
2022/07/09 08:37:52;;;;;;;4.80;3.03;;;;;;;;;;5044219;28;20453;-74
2022/07/09 08:40:19;;;;;;;3.07;2.73;;;;;;;;;;5049372;28;20844;-75
2022/07/09 08:42:46;;;;;;;4.17;2.43;;;;;;;;;;5049205;28;20548;-74
2022/07/09 08:45:14;;;;;;;2.70;1.90;;;;;;;;;;5047825;28;20504;-73
2022/07/09 08:47:41;;;;;;;2.47;1.87;;;;;;;;;;5049574;28;20517;-75
2022/07/09 08:50:11;;;;;;;2.13;1.97;;;;;;;;;;5049356;28;20832;-74
2022/07/09 08:52:38;;;;;;;6.40;2.57;;;;;;;;;;5046581;28;20985;-73
2022/07/09 08:55:07;;;;;;;4.00;2.13;;;;;;;;;;5029557;28;20517;-73
2022/07/09 08:57:34;;;;;;;3.27;2.20;;;;;;;;;;5043272;28;20754;-74
2022/07/09 09:00:03;;;;;;;2.90;2.70;;;;;;;;;;5035495;28;21014;-74
2022/07/09 09:02:35;;;;;;;3.53;2.00;;;;;;;;;;5029354;28;20478;-74
2022/07/09 09:05:02;;;;;;;2.73;2.50;;;;;;;;;;5029968;28;20482;-75
2022/07/09 09:07:31;;;;;;;6.07;2.30;;;;;;;;;;5029583;28;20447;-75
2022/07/09 09:09:58;;;;;;;2.30;2.03;;;;;;;;;;5044363;28;20563;-73
2022/07/09 09:12:28;;;;;;;2.23;2.03;;;;;;;;;;5049247;28;20457;-75
2022/07/09 09:14:55;;;;;;;3.03;1.90;;;;;;;;;;5052147;28;20437;-75
2022/07/09 09:17:22;;;;;;;2.67;2.03;;;;;;;;;;5053608;28;20499;-74
2022/07/09 09:19:49;;;;;;;2.80;1.97;;;;;;;;;;5053233;28;20495;-74
2022/07/09 09:22:17;;;;;;;1.70;1.60;;;;;;;;;;5053104;28;20461;-74
2022/07/09 09:24:49;;;;;;;3.80;2.27;;;;;;;;;;5052860;28;21032;-75
2022/07/09 09:27:16;;;;;;;2.20;2.00;;;;;;;;;;5053392;28;20467;-75
2022/07/09 09:29:50;;;;;;;2.63;2.43;;;;;;;;;;5053493;28;20452;-74
2022/07/09 09:32:20;;;;;;;4.20;2.07;;;;;;;;;;5053030;28;20523;-76
2022/07/09 09:34:50;;;;;;;2.10;1.90;;;;;;;;;;5052720;28;20433;-75
2022/07/09 09:37:26;;;;;;;3.23;2.40;;;;;;;;;;5053027;28;20445;-75
2022/07/09 09:39:54;;;;;;;3.67;2.50;;;;;;;;;;5053352;28;20440;-75
2022/07/09 09:42:23;;;;;;;3.47;2.13;;;;;;;;;;5052992;28;20466;-74
2022/07/09 09:44:51;;;;;;;4.03;2.00;;;;;;;;;;5052533;28;20642;-76
2022/07/09 09:47:22;;;;;;;2.40;2.20;;;;;;;;;;5052957;28;20475;-74
2022/07/09 09:49:50;;;;;;;2.43;1.63;;;;;;;;;;5052935;28;20445;-75
2022/07/09 09:52:17;;;;;;;2.77;1.67;;;;;;;;;;5053485;28;20515;-77
2022/07/09 09:54:47;;;;;;;2.10;1.90;;;;;;;;;;5053178;28;20437;-76
2022/07/09 09:57:17;;;;;;;1.97;1.87;;;;;;;;;;5053181;28;20453;-76
2022/07/09 09:59:45;;;;;;;3.77;2.00;;;;;;;;;;5053158;28;20453;-77
2022/07/09 10:02:12;;;;;;;3.70;2.60;;;;;;;;;;5054057;28;20809;-75
2022/07/09 10:04:40;;;;;;;2.60;1.83;;;;;;;;;;5055114;28;20477;-76
2022/07/09 10:07:07;;;;;;;2.90;1.60;;;;;;;;;;5057369;28;20499;-75
2022/07/09 10:09:34;;;;;;;1.80;1.20;;;;;;;;;;5047437;28;20442;-73
2022/07/09 10:12:01;;;;;;;1.70;1.50;;;;;;;;;;5040795;28;20466;-74
2022/07/09 10:14:34;;;;;;;1.63;1.40;;;;;;;;;;5040982;28;20439;-74
2022/07/09 10:17:11;;;;;;;1.57;1.47;;;;;;;;;;5051006;28;20438;-74
2022/07/09 10:19:39;;;;;;;2.37;1.80;;;;;;;;;;5050346;28;20450;-75
2022/07/09 10:22:06;;;;;;;1.43;1.30;;;;;;;;;;5034801;28;20462;-75
2022/07/09 10:24:34;;;;;;;2.63;1.50;;;;;;;;;;5033893;28;20486;-74
2022/07/09 10:27:05;;;;;;;4.60;1.60;;;;;;;;;;5036050;28;20526;-75
2022/07/09 10:29:34;;;;;;;3.50;1.63;;;;;;;;;;5039096;28;20533;-75
2022/07/09 10:32:02;;;;;;;5.27;1.83;;;;;;;;;;5035066;28;20463;-76
2022/07/09 10:34:36;;;;;;;1.90;1.70;;;;;;;;;;5034669;28;20525;-76
2022/07/09 10:37:04;;;;;;;3.00;1.30;;;;;;;;;;5032958;28;20442;-77
2022/07/09 10:39:31;;;;;;;1.30;1.20;;;;;;;;;;5033323;28;20447;-76
2022/07/09 10:42:02;;;;;;;1.67;1.27;;;;;;;;;;5032400;28;20475;-76
2022/07/09 10:44:30;;;;;;;4.53;1.40;;;;;;;;;;5031893;28;21006;-75
2022/07/09 10:46:58;;;;;;;1.60;1.40;;;;;;;;;;5031969;28;20496;-73
2022/07/09 10:49:27;;;;;;;1.70;1.60;;;;;;;;;;5031853;28;20446;-75
2022/07/09 10:51:57;;;;;;;1.00;1.00;;;;;;;;;;5031162;28;20528;-74
2022/07/09 10:54:24;;;;;;;1.87;1.77;;;;;;;;;;5031645;28;20529;-74
2022/07/09 10:56:52;;;;;;;1.43;1.33;;;;;;;;;;5032043;28;20454;-76
2022/07/09 10:59:19;;;;;;;1.97;1.30;;;;;;;;;;5041651;28;20465;-75
2022/07/09 11:01:46;;;;;;;1.50;1.40;;;;;;;;;;5051022;28;20527;-76
2022/07/09 11:04:24;;;;;;;1.30;1.20;;;;;;;;;;5051268;28;20442;-76
2022/07/09 11:06:51;;;;;;;1.90;1.40;;;;;;;;;;5043652;28;20533;-75
2022/07/09 11:09:18;;;;;;;2.20;1.90;;;;;;;;;;5044688;28;20441;-75
2022/07/09 11:11:46;;;;;;;1.63;1.53;;;;;;;;;;5052118;28;20850;-75
2022/07/09 11:14:13;;;;;;;2.47;1.40;;;;;;;;;;5051961;28;20484;-74
2022/07/09 11:16:40;;;;;;;2.00;1.90;;;;;;;;;;5051313;28;20438;-74
2022/07/09 11:19:16;;;;;;;1.90;1.70;;;;;;;;;;5051935;28;20445;-75
2022/07/09 11:21:43;;;;;;;1.63;1.53;;;;;;;;;;5055772;28;20522;-74
2022/07/09 11:24:16;;;;;;;2.33;1.60;;;;;;;;;;5057186;28;20476;-75
2022/07/09 11:26:43;;;;;;;1.80;1.70;;;;;;;;;;5052170;28;20433;-76
2022/07/09 11:29:10;;;;;;;3.00;1.90;;;;;;;;;;5051241;28;20453;-75
2022/07/09 11:31:38;;;;;;;2.60;1.60;;;;;;;;;;5050843;28;20507;-76
2022/07/09 11:34:14;;;;;;;2.80;1.50;;;;;;;;;;5050647;28;20495;-74
2022/07/09 11:36:43;;;;;;;1.80;1.20;;;;;;;;;;5051688;28;20889;-75
2022/07/09 11:39:10;;;;;;;2.13;1.33;;;;;;;;;;5050953;28;20878;-75
2022/07/09 11:41:42;;;;;;;2.40;1.47;;;;;;;;;;5051934;28;20590;-76
2022/07/09 11:44:09;;;;;;;1.53;1.43;;;;;;;;;;5051848;28;20553;-77
2022/07/09 11:46:37;;;;;;;1.87;1.63;;;;;;;;;;5051816;28;20933;-76
2022/07/09 11:49:04;;;;;;;3.10;1.40;;;;;;;;;;5053891;28;20976;-74
2022/07/09 11:51:32;;;;;;;1.50;1.43;;;;;;;;;;5051387;28;20442;-76
2022/07/09 11:54:00;;;;;;;3.30;1.27;;;;;;;;;;5051158;28;20441;-74
2022/07/09 11:56:28;;;;;;;3.43;1.30;;;;;;;;;;5051200;28;20449;-75
2022/07/09 11:58:55;;;;;;;2.97;1.73;;;;;;;;;;5051385;28;20454;-76
2022/07/09 12:01:25;;;;;;;1.67;1.40;;;;;;;;;;5050834;28;20529;-75
2022/07/09 12:03:52;;;;;;;2.00;1.47;;;;;;;;;;5052250;28;20536;-77
2022/07/09 12:06:20;;;;;;;1.53;1.43;;;;;;;;;;5051183;28;20996;-77
2022/07/09 12:08:47;;;;;;;1.47;1.37;;;;;;;;;;5047053;28;20488;-76
2022/07/09 12:11:15;;;;;;;1.90;1.50;;;;;;;;;;5031431;28;20446;-76
2022/07/09 12:13:42;;;;;;;1.60;1.50;;;;;;;;;;5031722;28;20851;-76
2022/07/09 12:16:09;;;;;;;1.63;1.53;;;;;;;;;;5032184;28;20431;-76
2022/07/09 12:18:36;;;;;;;1.53;1.40;;;;;;;;;;5031078;28;20443;-77
2022/07/09 12:21:04;;;;;;;3.23;1.23;;;;;;;;;;5031454;28;20442;-76
2022/07/09 12:23:31;;;;;;;1.20;1.20;;;;;;;;;;5031252;28;20471;-78
2022/07/09 12:25:57;;;;;;;5.57;1.60;;;;;;;;;;5030520;28;20474;-76
2022/07/09 12:28:26;;;;;;;1.70;1.60;;;;;;;;;;5030435;28;20446;-77
2022/07/09 12:30:53;;;;;;;1.57;1.47;;;;;;;;;;5031191;28;20840;-75
2022/07/09 12:33:20;;;;;;;2.33;1.60;;;;;;;;;;5030191;28;20465;-75
2022/07/09 12:35:47;;;;;;;1.70;1.60;;;;;;;;;;5030372;28;20447;-75
2022/07/09 12:38:14;;;;;;;1.57;1.47;;;;;;;;;;5031043;28;20449;-76
2022/07/09 12:40:41;;;;;;;3.17;1.53;;;;;;;;;;5030085;28;20447;-74
2022/07/09 12:43:08;;;;;;;1.70;1.60;;;;;;;;;;5030604;28;20466;-76
2022/07/09 12:45:36;;;;;;;1.30;1.20;;;;;;;;;;5029727;28;20859;-76
2022/07/09 12:48:03;;;;;;;3.27;1.73;;;;;;;;;;5029913;28;20505;-75
2022/07/09 12:50:30;;;;;;;2.50;1.60;;;;;;;;;;5033889;28;20770;-75
2022/07/09 12:52:57;;;;;;;2.43;1.60;;;;;;;;;;5033992;28;20466;-76
2022/07/09 12:55:24;;;;;;;4.13;1.93;;;;;;;;;;5033951;28;21257;-76
2022/07/09 12:57:51;;;;;;;1.50;1.40;;;;;;;;;;5034240;28;20446;-75
2022/07/09 13:00:18;;;;;;;1.47;1.37;;;;;;;;;;5033917;28;20438;-76
2022/07/09 13:02:47;;;;;;;1.70;1.30;;;;;;;;;;5034012;28;20500;-76
2022/07/09 13:05:16;;;;;;;1.53;1.30;;;;;;;;;;5034122;28;20508;-76
2022/07/09 13:07:43;;;;;;;2.83;1.50;;;;;;;;;;5033532;28;20551;-75
2022/07/09 13:10:10;;;;;;;1.53;1.43;;;;;;;;;;5044529;28;20508;-75
2022/07/09 13:12:37;;;;;;;2.00;1.87;;;;;;;;;;5052957;28;20524;-75
2022/07/09 13:15:05;;;;;;;3.13;1.30;;;;;;;;;;5040167;28;20496;-76
2022/07/09 13:17:32;;;;;;;1.03;1.03;;;;;;;;;;5033805;28;20442;-76
2022/07/09 13:20:00;;;;;;;1.57;1.27;;;;;;;;;;5034277;28;20533;-76
2022/07/09 13:22:27;;;;;;;1.37;1.23;;;;;;;;;;5033187;28;20956;-75
2022/07/09 13:24:54;;;;;;;1.67;1.37;;;;;;;;;;5033494;28;20860;-76
2022/07/09 13:27:21;;;;;;;1.30;1.20;;;;;;;;;;5033669;28;20469;-75
2022/07/09 13:29:48;;;;;;;1.10;1.10;;;;;;;;;;5033678;28;20454;-75
2022/07/09 13:32:15;;;;;;;2.93;1.30;;;;;;;;;;5033687;28;20459;-75
2022/07/09 13:34:42;;;;;;;1.40;1.30;;;;;;;;;;5033208;28;20872;-76
2022/07/09 13:37:12;;;;;;;1.40;1.20;;;;;;;;;;5032753;28;20430;-75
2022/07/09 13:39:39;;;;;;;2.27;1.50;;;;;;;;;;5035153;28;20563;-75
2022/07/09 13:42:06;;;;;;;1.43;1.33;;;;;;;;;;5052482;28;20855;-75
2022/07/09 13:44:33;;;;;;;2.60;1.50;;;;;;;;;;5052020;28;20464;-75
2022/07/09 13:47:00;;;;;;;1.53;1.40;;;;;;;;;;5052018;28;20513;-76
2022/07/09 13:49:27;;;;;;;1.50;1.40;;;;;;;;;;5052305;28;20836;-76
2022/07/09 13:51:55;;;;;;;1.53;1.43;;;;;;;;;;5051859;28;20485;-74
2022/07/09 13:54:23;;;;;;;2.80;1.50;;;;;;;;;;5051566;28;20441;-74
2022/07/09 13:56:50;;;;;;;4.20;1.20;;;;;;;;;;5051735;28;20491;-75
2022/07/09 13:59:17;;;;;;;1.33;1.23;;;;;;;;;;5052219;28;20949;-76
2022/07/09 14:01:44;;;;;;;2.13;1.33;;;;;;;;;;5050188;28;20542;-75
2022/07/09 14:04:11;;;;;;;1.67;1.57;;;;;;;;;;5051115;28;20525;-75
2022/07/09 14:06:39;;;;;;;2.30;2.10;;;;;;;;;;5051760;28;20578;-76
2022/07/09 14:09:06;;;;;;;2.17;1.90;;;;;;;;;;5051513;28;20548;-75
2022/07/09 14:11:34;;;;;;;2.20;1.50;;;;;;;;;;5051643;28;20441;-75
2022/07/09 14:14:01;;;;;;;2.40;2.20;;;;;;;;;;5051599;28;20445;-75
2022/07/09 14:16:28;;;;;;;1.90;1.77;;;;;;;;;;5055381;28;20472;-75
2022/07/09 14:18:55;;;;;;;2.30;2.10;;;;;;;;;;5055715;28;20483;-75
2022/07/09 14:21:22;;;;;;;2.70;1.70;;;;;;;;;;5055941;28;20964;-75
2022/07/09 14:23:49;;;;;;;1.67;1.57;;;;;;;;;;5054503;28;20562;-74
2022/07/09 14:26:17;;;;;;;3.27;1.40;;;;;;;;;;5054786;28;20481;-74
2022/07/09 14:28:45;;;;;;;2.50;1.70;;;;;;;;;;5055047;28;20488;-74
2022/07/09 14:31:12;;;;;;;3.63;1.73;;;;;;;;;;5051108;28;20495;-75
2022/07/09 14:33:39;;;;;;;2.33;1.93;;;;;;;;;;5050667;28;20465;-76
2022/07/09 14:36:06;;;;;;;2.10;1.40;;;;;;;;;;5051187;28;20503;-75
2022/07/09 14:38:33;;;;;;;1.57;1.50;;;;;;;;;;5050820;28;20505;-75
2022/07/09 14:41:00;;;;;;;1.67;1.57;;;;;;;;;;5052126;28;20437;-75
2022/07/09 14:43:27;;;;;;;1.73;1.43;;;;;;;;;;5052450;28;20465;-75
2022/07/09 14:45:56;;;;;;;1.70;1.57;;;;;;;;;;5050363;28;20480;-75